»·PEaware :: N491H KNZY-KRNM

N491H :: KNZY-KRNM

FLIGHT INFORMATION

Flight Status: Arrived
Operator: Privately registered:
United States
More flights under this callsign
Pilot: Edward H. (2712)
Aircraft: CESSNA 172 SKYHAWK
(C172)
More flights by this aircraft type
Origin: KNZY North Island NAS
United States
Destination: KRNM Ramona
United States
More flights between these airports :: More routes between these airports
Route: +
File this flight plan on PilotEdge
Remarks:
Altitude:
(Current/Filed)
0ft
Speed:
(Current/Filed)
0kts
Departed: 25-Apr-18 03:02 PM
Arrived: 25-Apr-18 03:44 PM
Distance/Time
Traveled:
25nm/0:42
Distance/Time
To Go:
Arrived

Flight Plot

Page will automatically refresh every two minutes.

Flight plan parsing failed; only flown route is shown


Map Options




Map Legend


Flown Route
Filed Route
Departure Airport
Arrival Airport
Navaid (VOR, NDB)
Fix

Horizontal Profiles

Position Reports

Time Latitude Longitude Heading Altitude Ground
Speed
25-Apr-18 15:00 32.572953 -117.117727 134 3042ft 123kts
25-Apr-18 15:01 32.577860 -117.078926 68 3043ft 126kts
25-Apr-18 15:02 32.590373 -117.040150 67 3041ft 126kts
25-Apr-18 15:03 32.603010 -117.001676 67 3041ft 125kts
25-Apr-18 15:04 32.626127 -116.977542 6 3034ft 117kts
25-Apr-18 15:05 32.625550 -116.969047 224 3151ft 108kts
25-Apr-18 15:06 32.606354 -116.996762 242 2977ft 108kts
25-Apr-18 15:07 32.594181 -117.029133 248 3014ft 110kts
25-Apr-18 15:08 32.582189 -117.063431 248 3013ft 114kts
25-Apr-18 15:09 32.570074 -117.098179 249 2863ft 114kts
25-Apr-18 15:10 32.573453 -117.131696 316 2017ft 103kts
25-Apr-18 15:11 32.601143 -117.148616 327 2016ft 114kts
25-Apr-18 15:12 32.628217 -117.167663 317 1730ft 103kts
25-Apr-18 15:13 32.650681 -117.189627 316 1224ft 93kts
25-Apr-18 15:14 32.665854 -117.208303 310 844ft 56kts
25-Apr-18 15:15 32.680565 -117.219491 338 366ft 64kts
25-Apr-18 15:16 32.693981 -117.217143 7 30ft 21kts
25-Apr-18 15:17 32.694776 -117.217357 2 30ft 0kts
25-Apr-18 15:18 32.694882 -117.217324 23 30ft 10kts
25-Apr-18 15:19 32.678442 -117.216708 167 465ft 96kts
25-Apr-18 15:20 32.661332 -117.189558 135 1372ft 103kts
25-Apr-18 15:21 32.640023 -117.169397 150 2360ft 95kts
25-Apr-18 15:22 32.617488 -117.151992 152 3016ft 114kts
25-Apr-18 15:23 32.590070 -117.131442 151 3017ft 117kts
25-Apr-18 15:24 32.570503 -117.103848 75 3016ft 123kts
25-Apr-18 15:25 32.582076 -117.065658 67 3014ft 123kts
25-Apr-18 15:26 32.594393 -117.027851 67 3011ft 122kts
25-Apr-18 15:27 32.606722 -116.990273 67 3007ft 122kts
25-Apr-18 15:28 32.635979 -116.975685 4 2821ft 122kts
25-Apr-18 15:29 32.664471 -116.971185 2 2812ft 108kts
25-Apr-18 15:30 32.695657 -116.966502 3 2807ft 113kts
25-Apr-18 15:31 32.727031 -116.961844 2 2806ft 114kts
25-Apr-18 15:32 32.758735 -116.957136 1 2804ft 115kts
25-Apr-18 15:33 32.790499 -116.952412 2 2803ft 115kts
25-Apr-18 15:34 32.822468 -116.947659 2 2802ft 115kts
25-Apr-18 15:35 32.854105 -116.942958 2 2801ft 114kts
25-Apr-18 15:36 32.885418 -116.938286 3 2801ft 113kts
25-Apr-18 15:37 32.916452 -116.933668 3 2800ft 112kts
25-Apr-18 15:38 32.946053 -116.929228 4 2788ft 97kts
25-Apr-18 15:39 32.970708 -116.925302 12 2755ft 90kts
25-Apr-18 15:40 32.996136 -116.913822 22 2599ft 96kts
25-Apr-18 15:41 33.018575 -116.901618 18 2533ft 66kts
25-Apr-18 15:42 33.036179 -116.898785 296 2017ft 72kts
25-Apr-18 15:43 33.039171 -116.914782 292 1399ft 13kts
25-Apr-18 15:44 33.039935 -116.914518 37 1399ft 9kts
25-Apr-18 15:45 33.039881 -116.914218 331 1399ft 0kts
25-Apr-18 15:46 33.039882 -116.914218 331 1399ft 0kts
25-Apr-18 15:47 33.039882 -116.914218 331 1399ft 0kts
25-Apr-18 15:48 33.039882 -116.914218 331 1399ft 0kts
25-Apr-18 15:49 33.039882 -116.914218 331 1399ft 0kts
25-Apr-18 15:50 33.039882 -116.914218 331 1399ft 0kts

Navigation Log

Ident Type
Flight plan parsing failed, navigation log unavailable